sensor_id;sensor_type;location;lat;lon;timestamp;temperature;humidity
18173;DHT22;9211;48.818;9.312;2023-06-26T00:00:12;21.30;89.30
18173;DHT22;9211;48.818;9.312;2023-06-26T00:02:39;21.20;90.00
18173;DHT22;9211;48.818;9.312;2023-06-26T00:05:07;21.30;90.50
18173;DHT22;9211;48.818;9.312;2023-06-26T00:07:34;21.20;90.50
18173;DHT22;9211;48.818;9.312;2023-06-26T00:10:01;21.10;90.70
18173;DHT22;9211;48.818;9.312;2023-06-26T00:12:28;21.20;90.50
18173;DHT22;9211;48.818;9.312;2023-06-26T00:14:57;21.10;90.60
18173;DHT22;9211;48.818;9.312;2023-06-26T00:17:24;21.00;90.70
18173;DHT22;9211;48.818;9.312;2023-06-26T00:19:51;20.80;91.00
18173;DHT22;9211;48.818;9.312;2023-06-26T00:22:18;20.80;91.00
18173;DHT22;9211;48.818;9.312;2023-06-26T00:24:45;20.90;91.10
18173;DHT22;9211;48.818;9.312;2023-06-26T00:27:12;20.90;91.20
18173;DHT22;9211;48.818;9.312;2023-06-26T00:29:39;20.90;91.40
18173;DHT22;9211;48.818;9.312;2023-06-26T00:32:07;21.00;91.60
18173;DHT22;9211;48.818;9.312;2023-06-26T00:34:35;21.00;91.60
18173;DHT22;9211;48.818;9.312;2023-06-26T00:37:02;20.90;91.90
18173;DHT22;9211;48.818;9.312;2023-06-26T00:39:30;20.90;91.80
18173;DHT22;9211;48.818;9.312;2023-06-26T00:41:57;20.90;91.60
18173;DHT22;9211;48.818;9.312;2023-06-26T00:44:24;20.80;92.10
18173;DHT22;9211;48.818;9.312;2023-06-26T00:46:52;20.80;92.30
18173;DHT22;9211;48.818;9.312;2023-06-26T00:49:21;20.90;91.80
18173;DHT22;9211;48.818;9.312;2023-06-26T00:51:49;20.70;92.40
18173;DHT22;9211;48.818;9.312;2023-06-26T00:54:16;20.60;92.40
18173;DHT22;9211;48.818;9.312;2023-06-26T00:56:46;20.60;92.50
18173;DHT22;9211;48.818;9.312;2023-06-26T00:59:13;20.50;92.60
18173;DHT22;9211;48.818;9.312;2023-06-26T01:01:40;20.40;92.70
18173;DHT22;9211;48.818;9.312;2023-06-26T01:04:09;20.40;93.20
18173;DHT22;9211;48.818;9.312;2023-06-26T01:06:46;20.40;93.10
18173;DHT22;9211;48.818;9.312;2023-06-26T01:09:16;20.30;93.50
18173;DHT22;9211;48.818;9.312;2023-06-26T01:11:44;20.30;93.40
18173;DHT22;9211;48.818;9.312;2023-06-26T01:14:11;20.20;93.50
18173;DHT22;9211;48.818;9.312;2023-06-26T01:16:38;20.10;93.70
18173;DHT22;9211;48.818;9.312;2023-06-26T01:19:10;20.10;93.70
18173;DHT22;9211;48.818;9.312;2023-06-26T01:21:42;20.20;93.60
18173;DHT22;9211;48.818;9.312;2023-06-26T01:24:16;20.10;93.70
18173;DHT22;9211;48.818;9.312;2023-06-26T01:26:51;20.10;94.20
18173;DHT22;9211;48.818;9.312;2023-06-26T01:29:18;20.00;94.40
18173;DHT22;9211;48.818;9.312;2023-06-26T01:31:47;19.90;94.60
18173;DHT22;9211;48.818;9.312;2023-06-26T01:34:15;20.00;94.60
18173;DHT22;9211;48.818;9.312;2023-06-26T01:36:44;20.00;94.90
18173;DHT22;9211;48.818;9.312;2023-06-26T01:39:12;20.00;94.80
18173;DHT22;9211;48.818;9.312;2023-06-26T01:41:39;20.00;94.90
18173;DHT22;9211;48.818;9.312;2023-06-26T01:44:26;20.00;95.40
18173;DHT22;9211;48.818;9.312;2023-06-26T01:47:04;20.00;94.90
18173;DHT22;9211;48.818;9.312;2023-06-26T01:49:38;20.00;94.80
18173;DHT22;9211;48.818;9.312;2023-06-26T01:52:14;20.00;94.60
18173;DHT22;9211;48.818;9.312;2023-06-26T01:54:55;20.00;94.70
18173;DHT22;9211;48.818;9.312;2023-06-26T01:57:22;20.00;94.90
18173;DHT22;9211;48.818;9.312;2023-06-26T01:59:53;20.00;95.30
18173;DHT22;9211;48.818;9.312;2023-06-26T02:02:20;19.90;95.60
18173;DHT22;9211;48.818;9.312;2023-06-26T02:04:47;19.80;95.50
18173;DHT22;9211;48.818;9.312;2023-06-26T02:07:15;19.90;95.50
18173;DHT22;9211;48.818;9.312;2023-06-26T02:09:42;19.80;95.90
18173;DHT22;9211;48.818;9.312;2023-06-26T02:12:10;19.80;96.10
18173;DHT22;9211;48.818;9.312;2023-06-26T02:14:37;19.80;95.50
18173;DHT22;9211;48.818;9.312;2023-06-26T02:17:05;19.80;95.70
18173;DHT22;9211;48.818;9.312;2023-06-26T02:19:34;19.80;96.00
18173;DHT22;9211;48.818;9.312;2023-06-26T02:22:01;19.70;96.10
18173;DHT22;9211;48.818;9.312;2023-06-26T02:24:28;19.60;96.30
18173;DHT22;9211;48.818;9.312;2023-06-26T02:26:57;19.60;96.30
18173;DHT22;9211;48.818;9.312;2023-06-26T02:29:24;19.50;96.60
18173;DHT22;9211;48.818;9.312;2023-06-26T02:31:51;19.40;97.00
18173;DHT22;9211;48.818;9.312;2023-06-26T02:34:23;19.40;97.00
18173;DHT22;9211;48.818;9.312;2023-06-26T02:36:50;19.40;97.00
18173;DHT22;9211;48.818;9.312;2023-06-26T02:39:20;19.40;97.30
18173;DHT22;9211;48.818;9.312;2023-06-26T02:41:47;19.30;97.30
18173;DHT22;9211;48.818;9.312;2023-06-26T02:44:15;19.40;97.30
18173;DHT22;9211;48.818;9.312;2023-06-26T02:46:42;19.30;97.60
18173;DHT22;9211;48.818;9.312;2023-06-26T02:49:09;19.30;98.00
18173;DHT22;9211;48.818;9.312;2023-06-26T02:51:38;19.20;97.80
18173;DHT22;9211;48.818;9.312;2023-06-26T02:54:12;19.20;98.20
18173;DHT22;9211;48.818;9.312;2023-06-26T02:56:41;19.10;98.30
18173;DHT22;9211;48.818;9.312;2023-06-26T02:59:08;19.10;98.50
18173;DHT22;9211;48.818;9.312;2023-06-26T03:01:35;19.10;98.40
18173;DHT22;9211;48.818;9.312;2023-06-26T03:04:03;19.00;98.50
18173;DHT22;9211;48.818;9.312;2023-06-26T03:06:31;19.10;98.50
18173;DHT22;9211;48.818;9.312;2023-06-26T03:09:00;19.00;98.50
18173;DHT22;9211;48.818;9.312;2023-06-26T03:11:28;19.00;98.60
18173;DHT22;9211;48.818;9.312;2023-06-26T03:13:55;19.00;98.80
18173;DHT22;9211;48.818;9.312;2023-06-26T03:16:22;19.10;98.70
18173;DHT22;9211;48.818;9.312;2023-06-26T03:18:49;19.00;99.20
18173;DHT22;9211;48.818;9.312;2023-06-26T03:21:16;19.00;98.80
18173;DHT22;9211;48.818;9.312;2023-06-26T03:23:43;19.10;98.90
18173;DHT22;9211;48.818;9.312;2023-06-26T03:26:12;19.10;99.00
18173;DHT22;9211;48.818;9.312;2023-06-26T03:28:40;19.00;99.10
18173;DHT22;9211;48.818;9.312;2023-06-26T03:31:08;19.00;99.30
18173;DHT22;9211;48.818;9.312;2023-06-26T03:33:36;18.90;99.40
18173;DHT22;9211;48.818;9.312;2023-06-26T03:36:04;18.90;99.50
18173;DHT22;9211;48.818;9.312;2023-06-26T03:38:31;18.90;99.60
18173;DHT22;9211;48.818;9.312;2023-06-26T03:40:59;18.80;99.90
18173;DHT22;9211;48.818;9.312;2023-06-26T03:43:28;18.80;99.90
18173;DHT22;9211;48.818;9.312;2023-06-26T03:46:11;18.80;99.90
18173;DHT22;9211;48.818;9.312;2023-06-26T03:48:38;18.80;99.90
18173;DHT22;9211;48.818;9.312;2023-06-26T03:51:06;18.80;99.90
18173;DHT22;9211;48.818;9.312;2023-06-26T03:53:34;18.80;99.90
18173;DHT22;9211;48.818;9.312;2023-06-26T03:56:01;18.80;99.90
18173;DHT22;9211;48.818;9.312;2023-06-26T03:58:29;18.80;99.90
18173;DHT22;9211;48.818;9.312;2023-06-26T04:00:56;19.00;99.90
18173;DHT22;9211;48.818;9.312;2023-06-26T04:03:24;19.00;99.90
18173;DHT22;9211;48.818;9.312;2023-06-26T04:05:51;18.90;99.90
18173;DHT22;9211;48.818;9.312;2023-06-26T04:08:18;18.90;99.90
18173;DHT22;9211;48.818;9.312;2023-06-26T04:10:46;18.90;99.90
18173;DHT22;9211;48.818;9.312;2023-06-26T04:13:14;18.90;99.90
18173;DHT22;9211;48.818;9.312;2023-06-26T04:15:42;18.80;99.90
18173;DHT22;9211;48.818;9.312;2023-06-26T04:18:09;18.90;99.90
18173;DHT22;9211;48.818;9.312;2023-06-26T04:20:39;18.90;99.90
18173;DHT22;9211;48.818;9.312;2023-06-26T04:23:06;19.00;99.90
18173;DHT22;9211;48.818;9.312;2023-06-26T04:25:33;19.00;99.90
18173;DHT22;9211;48.818;9.312;2023-06-26T04:28:00;19.10;99.90
18173;DHT22;9211;48.818;9.312;2023-06-26T04:30:27;19.10;99.90
18173;DHT22;9211;48.818;9.312;2023-06-26T04:32:55;19.10;99.90
18173;DHT22;9211;48.818;9.312;2023-06-26T04:35:24;19.10;99.90
18173;DHT22;9211;48.818;9.312;2023-06-26T04:37:51;19.20;99.90
18173;DHT22;9211;48.818;9.312;2023-06-26T04:40:18;19.20;99.90
18173;DHT22;9211;48.818;9.312;2023-06-26T04:42:45;19.30;99.90
18173;DHT22;9211;48.818;9.312;2023-06-26T04:45:12;19.30;99.90
18173;DHT22;9211;48.818;9.312;2023-06-26T04:47:39;19.40;99.90
18173;DHT22;9211;48.818;9.312;2023-06-26T04:50:08;19.30;99.90
18173;DHT22;9211;48.818;9.312;2023-06-26T04:52:35;19.40;99.90
18173;DHT22;9211;48.818;9.312;2023-06-26T04:55:02;19.40;99.90
18173;DHT22;9211;48.818;9.312;2023-06-26T04:57:29;19.40;99.90
18173;DHT22;9211;48.818;9.312;2023-06-26T04:59:56;19.50;99.90
18173;DHT22;9211;48.818;9.312;2023-06-26T05:02:23;19.60;99.90
18173;DHT22;9211;48.818;9.312;2023-06-26T05:04:52;19.70;99.90
18173;DHT22;9211;48.818;9.312;2023-06-26T05:07:20;19.70;99.90
18173;DHT22;9211;48.818;9.312;2023-06-26T05:09:47;19.80;99.90
18173;DHT22;9211;48.818;9.312;2023-06-26T05:12:14;19.90;99.90
18173;DHT22;9211;48.818;9.312;2023-06-26T05:14:41;19.90;99.90
18173;DHT22;9211;48.818;9.312;2023-06-26T05:17:08;20.00;99.90
18173;DHT22;9211;48.818;9.312;2023-06-26T05:19:35;20.10;99.90
18173;DHT22;9211;48.818;9.312;2023-06-26T05:22:03;20.20;99.90
18173;DHT22;9211;48.818;9.312;2023-06-26T05:24:34;20.20;99.90
18173;DHT22;9211;48.818;9.312;2023-06-26T05:27:02;20.30;99.90
18173;DHT22;9211;48.818;9.312;2023-06-26T05:29:30;20.30;99.90
18173;DHT22;9211;48.818;9.312;2023-06-26T05:31:58;20.50;99.90
18173;DHT22;9211;48.818;9.312;2023-06-26T05:34:26;20.50;99.90
18173;DHT22;9211;48.818;9.312;2023-06-26T05:36:57;20.60;99.90
18173;DHT22;9211;48.818;9.312;2023-06-26T05:39:25;20.70;99.90
18173;DHT22;9211;48.818;9.312;2023-06-26T05:41:54;20.80;99.90
18173;DHT22;9211;48.818;9.312;2023-06-26T05:44:21;20.90;99.90
18173;DHT22;9211;48.818;9.312;2023-06-26T05:46:48;21.00;99.90
18173;DHT22;9211;48.818;9.312;2023-06-26T05:49:15;21.00;99.90
18173;DHT22;9211;48.818;9.312;2023-06-26T05:51:42;21.10;99.90
18173;DHT22;9211;48.818;9.312;2023-06-26T05:54:10;21.20;99.90
18173;DHT22;9211;48.818;9.312;2023-06-26T05:56:39;21.20;99.90
18173;DHT22;9211;48.818;9.312;2023-06-26T05:59:08;21.30;99.90
18173;DHT22;9211;48.818;9.312;2023-06-26T06:01:36;21.40;99.90
18173;DHT22;9211;48.818;9.312;2023-06-26T06:04:03;21.50;99.90
18173;DHT22;9211;48.818;9.312;2023-06-26T06:06:30;21.60;99.90
18173;DHT22;9211;48.818;9.312;2023-06-26T06:08:57;21.60;99.90
18173;DHT22;9211;48.818;9.312;2023-06-26T06:11:23;21.70;99.90
18173;DHT22;9211;48.818;9.312;2023-06-26T06:13:50;21.70;99.90
18173;DHT22;9211;48.818;9.312;2023-06-26T06:16:19;21.90;99.90
18173;DHT22;9211;48.818;9.312;2023-06-26T06:18:46;22.10;99.90
18173;DHT22;9211;48.818;9.312;2023-06-26T06:21:13;22.00;99.90
18173;DHT22;9211;48.818;9.312;2023-06-26T06:23:40;22.10;99.90
18173;DHT22;9211;48.818;9.312;2023-06-26T06:26:07;22.10;99.90
18173;DHT22;9211;48.818;9.312;2023-06-26T06:28:34;22.20;99.90
18173;DHT22;9211;48.818;9.312;2023-06-26T06:31:00;22.30;99.90
18173;DHT22;9211;48.818;9.312;2023-06-26T06:33:29;22.40;99.90
18173;DHT22;9211;48.818;9.312;2023-06-26T06:35:56;22.40;99.90
18173;DHT22;9211;48.818;9.312;2023-06-26T06:38:23;22.50;99.90
18173;DHT22;9211;48.818;9.312;2023-06-26T06:40:51;22.60;99.90
18173;DHT22;9211;48.818;9.312;2023-06-26T06:43:18;22.70;99.90
18173;DHT22;9211;48.818;9.312;2023-06-26T06:45:45;22.70;99.90
18173;DHT22;9211;48.818;9.312;2023-06-26T06:48:12;22.80;99.90
18173;DHT22;9211;48.818;9.312;2023-06-26T06:50:40;22.90;99.90
18173;DHT22;9211;48.818;9.312;2023-06-26T06:53:07;22.90;99.90
18173;DHT22;9211;48.818;9.312;2023-06-26T06:55:34;23.10;99.90
18173;DHT22;9211;48.818;9.312;2023-06-26T06:58:01;23.10;99.90
18173;DHT22;9211;48.818;9.312;2023-06-26T07:00:28;23.10;99.90
18173;DHT22;9211;48.818;9.312;2023-06-26T07:02:57;23.20;99.90
18173;DHT22;9211;48.818;9.312;2023-06-26T07:05:25;23.30;99.90
18173;DHT22;9211;48.818;9.312;2023-06-26T07:07:54;23.30;99.70
18173;DHT22;9211;48.818;9.312;2023-06-26T07:10:21;23.40;99.60
18173;DHT22;9211;48.818;9.312;2023-06-26T07:12:48;23.40;99.70
18173;DHT22;9211;48.818;9.312;2023-06-26T07:15:16;23.50;99.90
18173;DHT22;9211;48.818;9.312;2023-06-26T07:17:43;23.50;99.90
18173;DHT22;9211;48.818;9.312;2023-06-26T07:20:10;23.60;99.90
18173;DHT22;9211;48.818;9.312;2023-06-26T07:22:41;23.60;99.50
18173;DHT22;9211;48.818;9.312;2023-06-26T07:25:10;23.70;99.30
18173;DHT22;9211;48.818;9.312;2023-06-26T07:27:37;23.70;98.90
18173;DHT22;9211;48.818;9.312;2023-06-26T07:30:04;23.80;98.30
18173;DHT22;9211;48.818;9.312;2023-06-26T07:32:31;24.00;97.90
18173;DHT22;9211;48.818;9.312;2023-06-26T07:34:58;24.10;97.60
18173;DHT22;9211;48.818;9.312;2023-06-26T07:37:25;24.10;97.60
18173;DHT22;9211;48.818;9.312;2023-06-26T07:39:52;24.20;97.80
18173;DHT22;9211;48.818;9.312;2023-06-26T07:42:21;24.20;97.90
18173;DHT22;9211;48.818;9.312;2023-06-26T07:44:48;24.20;97.30
18173;DHT22;9211;48.818;9.312;2023-06-26T07:47:15;24.30;97.80
18173;DHT22;9211;48.818;9.312;2023-06-26T07:49:42;24.30;96.90
18173;DHT22;9211;48.818;9.312;2023-06-26T07:52:09;24.40;96.30
18173;DHT22;9211;48.818;9.312;2023-06-26T07:54:36;24.50;96.00
18173;DHT22;9211;48.818;9.312;2023-06-26T07:57:05;24.60;95.90
18173;DHT22;9211;48.818;9.312;2023-06-26T07:59:35;24.70;96.00
18173;DHT22;9211;48.818;9.312;2023-06-26T08:02:03;24.70;96.00
18173;DHT22;9211;48.818;9.312;2023-06-26T08:04:30;24.70;96.30
18173;DHT22;9211;48.818;9.312;2023-06-26T08:06:58;24.90;95.30
18173;DHT22;9211;48.818;9.312;2023-06-26T08:09:26;25.00;95.10
18173;DHT22;9211;48.818;9.312;2023-06-26T08:11:53;25.10;95.00
18173;DHT22;9211;48.818;9.312;2023-06-26T08:14:20;25.10;95.00
18173;DHT22;9211;48.818;9.312;2023-06-26T08:16:50;25.20;94.50
18173;DHT22;9211;48.818;9.312;2023-06-26T08:19:17;25.30;94.10
18173;DHT22;9211;48.818;9.312;2023-06-26T08:21:45;25.40;94.40
18173;DHT22;9211;48.818;9.312;2023-06-26T08:24:12;25.50;93.70
18173;DHT22;9211;48.818;9.312;2023-06-26T08:26:41;25.50;93.80
18173;DHT22;9211;48.818;9.312;2023-06-26T08:29:08;25.60;94.10
18173;DHT22;9211;48.818;9.312;2023-06-26T08:31:35;25.70;93.60
18173;DHT22;9211;48.818;9.312;2023-06-26T08:34:04;25.80;93.30
18173;DHT22;9211;48.818;9.312;2023-06-26T08:36:32;26.00;93.20
18173;DHT22;9211;48.818;9.312;2023-06-26T08:38:59;26.10;92.80
18173;DHT22;9211;48.818;9.312;2023-06-26T08:41:26;26.10;92.70
18173;DHT22;9211;48.818;9.312;2023-06-26T08:43:53;26.10;92.80
18173;DHT22;9211;48.818;9.312;2023-06-26T08:46:20;26.20;92.90
18173;DHT22;9211;48.818;9.312;2023-06-26T08:48:49;26.40;93.00
18173;DHT22;9211;48.818;9.312;2023-06-26T08:51:24;26.40;92.60
18173;DHT22;9211;48.818;9.312;2023-06-26T08:53:56;26.40;92.40
18173;DHT22;9211;48.818;9.312;2023-06-26T08:56:27;26.50;92.30
18173;DHT22;9211;48.818;9.312;2023-06-26T08:58:54;26.60;92.30
18173;DHT22;9211;48.818;9.312;2023-06-26T09:01:22;26.70;92.00
18173;DHT22;9211;48.818;9.312;2023-06-26T09:03:50;26.90;91.10
18173;DHT22;9211;48.818;9.312;2023-06-26T09:06:17;26.90;91.20
18173;DHT22;9211;48.818;9.312;2023-06-26T09:08:46;27.10;90.90
18173;DHT22;9211;48.818;9.312;2023-06-26T09:11:13;27.20;90.30
18173;DHT22;9211;48.818;9.312;2023-06-26T09:13:40;27.20;90.40
18173;DHT22;9211;48.818;9.312;2023-06-26T09:16:08;27.30;90.40
18173;DHT22;9211;48.818;9.312;2023-06-26T09:18:36;27.30;90.10
18173;DHT22;9211;48.818;9.312;2023-06-26T09:21:06;27.40;90.00
18173;DHT22;9211;48.818;9.312;2023-06-26T09:23:34;27.60;89.50
18173;DHT22;9211;48.818;9.312;2023-06-26T09:26:04;27.70;89.30
18173;DHT22;9211;48.818;9.312;2023-06-26T09:28:32;27.80;89.30
18173;DHT22;9211;48.818;9.312;2023-06-26T09:31:03;27.90;88.60
18173;DHT22;9211;48.818;9.312;2023-06-26T09:33:34;28.10;88.10
18173;DHT22;9211;48.818;9.312;2023-06-26T09:36:05;28.20;87.70
18173;DHT22;9211;48.818;9.312;2023-06-26T09:38:35;28.30;87.70
18173;DHT22;9211;48.818;9.312;2023-06-26T09:41:03;28.40;86.60
18173;DHT22;9211;48.818;9.312;2023-06-26T09:43:30;28.60;86.70
18173;DHT22;9211;48.818;9.312;2023-06-26T09:45:58;28.70;86.20
18173;DHT22;9211;48.818;9.312;2023-06-26T09:48:27;28.90;85.30
18173;DHT22;9211;48.818;9.312;2023-06-26T09:50:55;28.80;85.10
18173;DHT22;9211;48.818;9.312;2023-06-26T09:53:22;28.90;85.40
18173;DHT22;9211;48.818;9.312;2023-06-26T09:55:49;28.90;85.60
18173;DHT22;9211;48.818;9.312;2023-06-26T09:58:18;29.00;85.00
18173;DHT22;9211;48.818;9.312;2023-06-26T10:00:45;29.10;84.30
18173;DHT22;9211;48.818;9.312;2023-06-26T10:03:12;29.20;84.20
18173;DHT22;9211;48.818;9.312;2023-06-26T10:05:40;29.40;83.40
18173;DHT22;9211;48.818;9.312;2023-06-26T10:08:08;29.50;82.60
18173;DHT22;9211;48.818;9.312;2023-06-26T10:10:35;29.50;82.50
18173;DHT22;9211;48.818;9.312;2023-06-26T10:13:09;29.60;81.00
18173;DHT22;9211;48.818;9.312;2023-06-26T10:15:40;29.60;81.20
18173;DHT22;9211;48.818;9.312;2023-06-26T10:18:11;29.60;81.00
18173;DHT22;9211;48.818;9.312;2023-06-26T10:20:40;29.60;81.60
18173;DHT22;9211;48.818;9.312;2023-06-26T10:23:09;29.60;81.50
18173;DHT22;9211;48.818;9.312;2023-06-26T10:25:38;29.70;82.30
18173;DHT22;9211;48.818;9.312;2023-06-26T10:28:08;29.80;81.70
18173;DHT22;9211;48.818;9.312;2023-06-26T10:30:36;29.90;81.90
18173;DHT22;9211;48.818;9.312;2023-06-26T10:33:05;30.00;81.70
18173;DHT22;9211;48.818;9.312;2023-06-26T10:35:33;29.90;81.40
18173;DHT22;9211;48.818;9.312;2023-06-26T10:38:01;30.00;82.00
18173;DHT22;9211;48.818;9.312;2023-06-26T10:40:40;30.00;81.60
18173;DHT22;9211;48.818;9.312;2023-06-26T10:43:07;30.00;82.50
18173;DHT22;9211;48.818;9.312;2023-06-26T10:45:35;30.10;83.10
18173;DHT22;9211;48.818;9.312;2023-06-26T10:48:04;30.20;83.00
18173;DHT22;9211;48.818;9.312;2023-06-26T10:50:32;30.10;82.90
18173;DHT22;9211;48.818;9.312;2023-06-26T10:53:11;30.00;82.60
18173;DHT22;9211;48.818;9.312;2023-06-26T10:55:47;29.80;82.20
18173;DHT22;9211;48.818;9.312;2023-06-26T10:58:28;29.60;82.40
18173;DHT22;9211;48.818;9.312;2023-06-26T11:01:19;29.50;82.80
18173;DHT22;9211;48.818;9.312;2023-06-26T11:04:00;29.60;83.30
18173;DHT22;9211;48.818;9.312;2023-06-26T11:06:29;29.60;83.20
18173;DHT22;9211;48.818;9.312;2023-06-26T11:09:01;29.70;82.60
18173;DHT22;9211;48.818;9.312;2023-06-26T11:11:56;29.70;81.90
18173;DHT22;9211;48.818;9.312;2023-06-26T11:14:31;29.80;80.20
18173;DHT22;9211;48.818;9.312;2023-06-26T11:16:58;29.80;80.10
18173;DHT22;9211;48.818;9.312;2023-06-26T11:19:31;29.80;80.60
18173;DHT22;9211;48.818;9.312;2023-06-26T11:21:59;29.90;81.10
18173;DHT22;9211;48.818;9.312;2023-06-26T11:24:28;30.10;81.20
18173;DHT22;9211;48.818;9.312;2023-06-26T11:27:00;30.20;81.50
18173;DHT22;9211;48.818;9.312;2023-06-26T11:29:28;30.20;81.30
18173;DHT22;9211;48.818;9.312;2023-06-26T11:32:03;30.30;82.20
18173;DHT22;9211;48.818;9.312;2023-06-26T11:34:32;30.40;81.20
18173;DHT22;9211;48.818;9.312;2023-06-26T11:37:00;30.40;82.00
18173;DHT22;9211;48.818;9.312;2023-06-26T11:39:30;30.20;82.30
18173;DHT22;9211;48.818;9.312;2023-06-26T11:41:58;30.00;81.00
18173;DHT22;9211;48.818;9.312;2023-06-26T11:44:29;29.90;83.00
18173;DHT22;9211;48.818;9.312;2023-06-26T11:46:57;29.90;84.50
18173;DHT22;9211;48.818;9.312;2023-06-26T11:49:24;29.90;84.20
18173;DHT22;9211;48.818;9.312;2023-06-26T11:51:54;30.00;85.10
18173;DHT22;9211;48.818;9.312;2023-06-26T11:54:24;29.90;84.10
18173;DHT22;9211;48.818;9.312;2023-06-26T11:56:53;30.00;85.10
18173;DHT22;9211;48.818;9.312;2023-06-26T11:59:22;30.00;85.90
18173;DHT22;9211;48.818;9.312;2023-06-26T12:01:50;30.00;85.70
18173;DHT22;9211;48.818;9.312;2023-06-26T12:04:18;30.10;85.80
18173;DHT22;9211;48.818;9.312;2023-06-26T12:06:47;30.10;86.00
18173;DHT22;9211;48.818;9.312;2023-06-26T12:09:18;30.20;86.10
18173;DHT22;9211;48.818;9.312;2023-06-26T12:11:47;30.20;86.40
18173;DHT22;9211;48.818;9.312;2023-06-26T12:14:15;30.20;86.40
18173;DHT22;9211;48.818;9.312;2023-06-26T12:16:43;30.20;86.60
18173;DHT22;9211;48.818;9.312;2023-06-26T12:19:10;30.10;86.30
18173;DHT22;9211;48.818;9.312;2023-06-26T12:21:47;30.00;86.60
18173;DHT22;9211;48.818;9.312;2023-06-26T12:24:20;29.90;87.80
18173;DHT22;9211;48.818;9.312;2023-06-26T12:26:49;29.90;88.10
18173;DHT22;9211;48.818;9.312;2023-06-26T12:29:18;29.80;87.70
18173;DHT22;9211;48.818;9.312;2023-06-26T12:31:48;29.50;88.80
18173;DHT22;9211;48.818;9.312;2023-06-26T12:34:18;29.40;88.80
18173;DHT22;9211;48.818;9.312;2023-06-26T12:36:47;29.40;90.10
18173;DHT22;9211;48.818;9.312;2023-06-26T12:39:16;29.50;90.00
18173;DHT22;9211;48.818;9.312;2023-06-26T12:41:48;29.60;89.10
18173;DHT22;9211;48.818;9.312;2023-06-26T12:44:19;29.80;88.70
18173;DHT22;9211;48.818;9.312;2023-06-26T12:46:48;29.80;88.30
18173;DHT22;9211;48.818;9.312;2023-06-26T12:49:16;29.80;88.00
18173;DHT22;9211;48.818;9.312;2023-06-26T12:51:43;29.90;88.30
18173;DHT22;9211;48.818;9.312;2023-06-26T12:54:10;29.90;88.30
18173;DHT22;9211;48.818;9.312;2023-06-26T12:56:37;29.90;88.30
18173;DHT22;9211;48.818;9.312;2023-06-26T12:59:05;30.00;88.20
18173;DHT22;9211;48.818;9.312;2023-06-26T13:01:32;30.00;88.80
18173;DHT22;9211;48.818;9.312;2023-06-26T13:03:59;30.10;88.10
18173;DHT22;9211;48.818;9.312;2023-06-26T13:06:26;30.10;87.60
18173;DHT22;9211;48.818;9.312;2023-06-26T13:08:53;30.20;87.20
18173;DHT22;9211;48.818;9.312;2023-06-26T13:11:20;30.30;88.20
18173;DHT22;9211;48.818;9.312;2023-06-26T13:13:48;30.30;87.00
18173;DHT22;9211;48.818;9.312;2023-06-26T13:16:16;30.40;86.30
18173;DHT22;9211;48.818;9.312;2023-06-26T13:18:44;30.40;86.00
18173;DHT22;9211;48.818;9.312;2023-06-26T13:21:12;30.40;86.30
18173;DHT22;9211;48.818;9.312;2023-06-26T13:23:39;30.40;85.60
18173;DHT22;9211;48.818;9.312;2023-06-26T13:26:07;30.40;84.90
18173;DHT22;9211;48.818;9.312;2023-06-26T13:28:34;30.50;84.90
18173;DHT22;9211;48.818;9.312;2023-06-26T13:31:01;30.50;83.50
18173;DHT22;9211;48.818;9.312;2023-06-26T13:33:29;30.40;82.80
18173;DHT22;9211;48.818;9.312;2023-06-26T13:35:57;30.40;83.20
18173;DHT22;9211;48.818;9.312;2023-06-26T13:38:25;30.50;82.60
18173;DHT22;9211;48.818;9.312;2023-06-26T13:40:52;30.50;83.30
18173;DHT22;9211;48.818;9.312;2023-06-26T13:43:21;30.50;82.40
18173;DHT22;9211;48.818;9.312;2023-06-26T13:45:48;30.60;82.00
18173;DHT22;9211;48.818;9.312;2023-06-26T13:48:15;30.60;81.00
18173;DHT22;9211;48.818;9.312;2023-06-26T13:50:44;30.60;80.60
18173;DHT22;9211;48.818;9.312;2023-06-26T13:53:12;30.80;79.20
18173;DHT22;9211;48.818;9.312;2023-06-26T13:55:40;30.90;79.80
18173;DHT22;9211;48.818;9.312;2023-06-26T13:58:07;30.90;78.50
18173;DHT22;9211;48.818;9.312;2023-06-26T14:00:35;30.80;79.20
18173;DHT22;9211;48.818;9.312;2023-06-26T14:03:03;30.80;78.00
18173;DHT22;9211;48.818;9.312;2023-06-26T14:05:32;31.00;77.50
18173;DHT22;9211;48.818;9.312;2023-06-26T14:08:03;31.00;75.60
18173;DHT22;9211;48.818;9.312;2023-06-26T14:10:31;31.00;75.40
18173;DHT22;9211;48.818;9.312;2023-06-26T14:12:58;31.20;75.40
18173;DHT22;9211;48.818;9.312;2023-06-26T14:15:26;31.20;74.20
18173;DHT22;9211;48.818;9.312;2023-06-26T14:17:53;31.10;73.80
18173;DHT22;9211;48.818;9.312;2023-06-26T14:20:21;31.10;73.40
18173;DHT22;9211;48.818;9.312;2023-06-26T14:22:49;31.10;74.30
18173;DHT22;9211;48.818;9.312;2023-06-26T14:25:17;31.00;73.50
18173;DHT22;9211;48.818;9.312;2023-06-26T14:27:44;30.90;73.10
18173;DHT22;9211;48.818;9.312;2023-06-26T14:30:12;30.80;73.40
18173;DHT22;9211;48.818;9.312;2023-06-26T14:32:39;30.90;73.00
18173;DHT22;9211;48.818;9.312;2023-06-26T14:35:06;31.00;72.90
18173;DHT22;9211;48.818;9.312;2023-06-26T14:37:35;31.10;71.90
18173;DHT22;9211;48.818;9.312;2023-06-26T14:40:02;31.20;71.50
18173;DHT22;9211;48.818;9.312;2023-06-26T14:42:31;31.10;70.10
18173;DHT22;9211;48.818;9.312;2023-06-26T14:44:58;31.10;70.20
18173;DHT22;9211;48.818;9.312;2023-06-26T14:47:25;31.10;70.60
18173;DHT22;9211;48.818;9.312;2023-06-26T14:49:52;31.30;71.00
18173;DHT22;9211;48.818;9.312;2023-06-26T14:52:19;31.40;69.40
18173;DHT22;9211;48.818;9.312;2023-06-26T14:54:45;31.40;69.40
18173;DHT22;9211;48.818;9.312;2023-06-26T14:57:12;31.40;68.80
18173;DHT22;9211;48.818;9.312;2023-06-26T14:59:41;31.20;69.10
18173;DHT22;9211;48.818;9.312;2023-06-26T15:02:08;31.10;70.70
18173;DHT22;9211;48.818;9.312;2023-06-26T15:04:34;31.10;70.60
18173;DHT22;9211;48.818;9.312;2023-06-26T15:07:01;31.10;70.20
18173;DHT22;9211;48.818;9.312;2023-06-26T15:09:28;31.20;70.20
18173;DHT22;9211;48.818;9.312;2023-06-26T15:11:57;31.20;71.30
18173;DHT22;9211;48.818;9.312;2023-06-26T15:14:24;31.30;71.10
18173;DHT22;9211;48.818;9.312;2023-06-26T15:16:52;31.40;70.20
18173;DHT22;9211;48.818;9.312;2023-06-26T15:19:19;31.40;70.30
18173;DHT22;9211;48.818;9.312;2023-06-26T15:21:46;31.30;69.80
18173;DHT22;9211;48.818;9.312;2023-06-26T15:24:13;31.20;70.30
18173;DHT22;9211;48.818;9.312;2023-06-26T15:26:40;31.10;70.20
18173;DHT22;9211;48.818;9.312;2023-06-26T15:29:07;31.10;70.40
18173;DHT22;9211;48.818;9.312;2023-06-26T15:31:34;30.90;70.50
18173;DHT22;9211;48.818;9.312;2023-06-26T15:34:03;30.90;69.60
18173;DHT22;9211;48.818;9.312;2023-06-26T15:36:31;30.80;70.70
18173;DHT22;9211;48.818;9.312;2023-06-26T15:38:58;30.80;69.90
18173;DHT22;9211;48.818;9.312;2023-06-26T15:41:25;30.70;69.60
18173;DHT22;9211;48.818;9.312;2023-06-26T15:43:52;30.70;69.70
18173;DHT22;9211;48.818;9.312;2023-06-26T15:46:18;30.70;69.80
18173;DHT22;9211;48.818;9.312;2023-06-26T15:48:45;30.60;70.00
18173;DHT22;9211;48.818;9.312;2023-06-26T15:51:14;30.60;70.20